Latest Coastal Weather Observations for Norah Head

IDN60701

Issued at 5:02 pm EDT Thursday 23 January 2020 (issued every 10 minutes, with the page automatically refreshed every 10 minutes)

About coastal observations | Map of coastal stations | Coastal observations for NSW | Marine services | Other Formats
Station Details ID: 061366 Name: NORAH HEAD AWS Lat: -33.28 Lon: 151.58 Height: 18.8 m
Data from the previous 72 hours. | See also: Recent months at Norah Head
Date/Time
EDT
Wind Sea
Height
m
Swell Vis
km
Cloud Weather Temp
°C
Press
hPa
Rain since
9am
mm
Dir  Spd
kts
Gust
kts
Height
m
Period
s
Dir
23/05:00pm NE 25 30 - - - - - - - 28.5 997.9 0.0
23/04:42pm NE 19 26 - - - - - - - 30.1 998.1 0.0
23/04:30pm N 13 25 - - - - - - - 35.2 998.2 0.0
23/04:00pm NNW 10 19 - - - - - - - 40.1 998.6 0.0
23/03:30pm NNW 14 26 - - - - - - - 40.1 999.0 0.0
23/03:15pm N 18 29 - - - - - - - 38.5 999.3 0.0
23/03:00pm NNW 18 27 - - - - - - - 37.9 999.2 0.0
23/02:31pm NNW 15 29 - - - - - - - 38.9 999.7 0.0
23/02:30pm NNW 15 29 - - - - - - - 39.0 999.4 0.0
23/02:29pm NNW 14 29 - - - - - - - 39.7 999.6 0.0
23/02:23pm NNW 14 31 - - - - - - - 39.6 1000.1 0.0
23/02:17pm N 21 32 - - - - - - - 38.1 999.8 0.0
23/02:10pm NNW 16 32 - - - - - - - 38.5 999.8 0.0
23/02:00pm NNW 13 20 - - - - - - - 39.2 1000.4 0.0
23/01:30pm NNW 21 34 - - - - - - - 37.9 1000.7 0.0
23/01:22pm NNW 21 34 - - - - - - - 37.7 1000.6 0.0
23/01:00pm N 26 33 - - - - - - - 37.2 1000.9 0.0
23/12:32pm N 23 34 - - - - - - - 37.1 1001.2 0.0
23/12:30pm NNW 22 32 - - - - - - - 37.2 1001.4 0.0
23/12:06pm NNW 19 30 - - - - - - - 37.3 1002.1 0.0
23/12:00pm NNW 21 30 - - - - - - - 37.0 1002.0 0.0
23/11:30am N 19 25 - - - - - - - 34.3 1002.6 0.0
23/11:00am N 21 26 - - - - - - - 33.3 1002.9 0.0
23/10:30am N 22 26 - - - - - - - 32.8 1003.1 0.0
23/10:00am N 23 28 - - - - - - - 31.9 1003.3 0.0
23/09:30am N 22 25 - - - - - - - 31.3 1003.7 0.0
23/09:00am N 22 25 - - - - - - - 30.5 1004.1 0.0
23/08:30am N 17 20 - - - - - - - 29.8 1004.3 0.0
23/08:00am N 13 16 - - - - - - - 28.6 1004.3 0.0
23/07:30am ENE 1 3 - - - - - - - 26.1 1004.5 0.0
23/07:00am N 4 6 - - - - - - - 24.3 1004.2 0.0
23/06:30am NNW 5 6 - - - - - - - 22.2 1004.1 0.0
23/06:00am NW 4 7 - - - - - - - 22.7 1003.9 0.0
23/05:30am NW 4 6 - - - - - - - 22.4 1004.0 0.0
23/05:00am NW 5 8 - - - - - - - 21.7 1004.0 0.0
23/04:30am NW 4 5 - - - - - - - 21.7 1004.2 0.0
23/04:00am NNW 6 8 - - - - - - - 22.1 1004.1 0.0
23/03:30am N 11 15 - - - - - - - 23.1 1003.9 0.0
23/03:00am NNE 14 16 - - - - - - - 23.6 1003.7 0.0
23/02:30am NE 12 14 - - - - - - - 23.6 1004.1 0.0
23/02:00am NNE 13 15 - - - - - - - 23.8 1004.7 0.0
23/01:30am NNE 16 18 - - - - - - - 24.0 1005.2 0.0
23/01:00am NNE 15 17 - - - - - - - 24.2 1005.6 0.0
23/12:30am NNE 14 15 - - - - - - - 24.0 1006.0 0.0
23/12:00am NNE 14 16 - - - - - - - 24.1 1006.1 0.0
 
Date/Time
EDT
Wind Sea
Height
m
Swell Vis
km
Cloud Weather Temp
°C
Press
hPa
Rain since
9am
mm
Dir  Spd
kts
Gust
kts
Height
m
Period
s
Dir
22/11:30pm NNE 14 15 - - - - - - - 24.2 1006.3 0.0
22/11:00pm NNE 17 19 - - - - - - - 24.4 1006.3 0.0
22/10:30pm NNE 20 22 - - - - - - - 24.6 1006.2 0.0
22/10:00pm NNE 17 20 - - - - - - - 24.7 1006.2 0.0
22/09:30pm NNE 17 20 - - - - - - - 24.6 1005.8 0.0
22/09:00pm NNE 15 18 - - - - - - - 24.6 1005.8 0.0
22/08:30pm NNE 17 20 - - - - - - - 24.9 1005.9 0.0
22/08:00pm NNE 19 22 - - - - - - - 25.2 1005.7 0.0
22/07:30pm NNE 19 22 - - - - - - - 25.5 1005.5 0.0
22/07:00pm NE 13 15 - - - - - - - 25.8 1005.4 0.0
22/06:30pm NE 12 14 - - - - - - - 26.2 1005.2 0.0
22/06:00pm NE 12 14 - - - - - - - 27.5 1005.3 0.0
22/05:30pm ENE 12 15 - - - - - - - 28.2 1005.4 0.0
22/05:00pm E 14 16 - - - - - - - 27.2 1005.4 0.0
22/04:30pm E 14 16 - - - - - - - 27.3 1005.9 0.0
22/04:00pm E 14 16 - - - - - - - 27.5 1006.5 0.0
22/03:30pm E 14 16 - - - - - - - 27.8 1007.0 0.0
22/03:00pm ENE 13 15 - - - - - - - 28.2 1007.6 0.0
22/02:30pm ENE 13 16 - - - - - - - 28.8 1008.1 0.0
22/02:00pm ENE 11 13 - - - - - - - 29.9 1008.6 0.0
22/01:30pm ENE 11 13 - - - - - - - 30.1 1009.1 0.0
22/01:00pm ENE 9 10 - - - - - - - 29.3 1009.7 0.0
22/12:30pm E 7 9 - - - - - - - 29.0 1010.1 0.0
22/12:00pm E 6 7 - - - - - - - 28.3 1010.5 0.0
22/11:30am ESE 4 6 - - - - - - - 26.5 1010.9 0.0
22/11:00am ESE 4 4 - - - - - - - 25.9 1011.2 0.0
22/10:30am SE 3 4 - - - - - - - 26.0 1011.5 0.0
22/10:00am S 2 3 - - - - - - - 24.8 1011.6 0.0
22/09:30am S 3 3 - - - - - - - 25.1 1011.6 0.0
22/09:00am S 3 4 - - - - - - - 25.0 1011.5 0.0
22/08:30am SSW 3 5 - - - - - - - 24.2 1011.5 0.0
22/08:00am SSW 3 5 - - - - - - - 23.3 1011.3 0.0
22/07:30am SW 3 5 - - - - - - - 22.4 1011.0 0.0
22/07:00am SW 3 5 - - - - - - - 21.8 1010.9 0.0
22/06:30am SW 4 5 - - - - - - - 21.3 1010.6 0.0
22/06:00am WSW 6 7 - - - - - - - 21.5 1010.6 0.0
22/05:30am SW 4 5 - - - - - - - 21.8 1010.2 0.0
22/05:00am SW 4 5 - - - - - - - 21.7 1010.0 0.0
22/04:30am SW 4 6 - - - - - - - 21.9 1009.9 0.0
22/04:00am SW 4 5 - - - - - - - 22.1 1010.0 0.0
22/03:30am SW 4 6 - - - - - - - 22.3 1009.9 0.0
22/03:00am SW 4 6 - - - - - - - 22.6 1010.0 0.0
22/02:30am SW 2 2 - - - - - - - 22.5 1010.2 0.0
22/02:00am CALM 0 0 - - - - - - - 22.5 1010.4 0.0
22/01:30am CALM 0 2 - - - - - - - 22.8 1010.4 0.0
22/01:00am NNW 2 3 - - - - - - - 22.9 1010.5 0.0
22/12:30am NNW 3 4 - - - - - - - 22.9 1010.8 0.0
22/12:00am NNW 3 5 - - - - - - - 22.9 1010.7 0.0
 
Date/Time
EDT
Wind Sea
Height
m
Swell Vis
km
Cloud Weather Temp
°C
Press
hPa
Rain since
9am
mm
Dir  Spd
kts
Gust
kts
Height
m
Period
s
Dir
21/11:30pm NNW 3 4 - - - - - - - 22.9 1010.8 0.0
21/11:00pm NNE 3 4 - - - - - - - 23.1 1010.7 0.0
21/10:30pm NNE 5 6 - - - - - - - 23.2 1010.5 0.0
21/10:00pm E 4 5 - - - - - - - 23.5 1010.1 0.0
21/09:30pm NE 5 7 - - - - - - - 23.4 1009.9 0.0
21/09:00pm ENE 6 7 - - - - - - - 23.6 1009.5 0.0
21/08:30pm ENE 5 6 - - - - - - - 23.9 1009.1 0.0
21/08:00pm E 8 11 - - - - - - - 24.3 1008.6 0.0
21/07:30pm SE 11 12 - - - - - - - 24.5 1007.8 0.0
21/07:00pm SE 11 14 - - - - - - - 25.2 1007.5 0.0
21/06:30pm SE 12 14 - - - - - - - 25.6 1006.9 0.0
21/06:00pm SE 13 15 - - - - - - - 26.1 1006.6 0.0
21/05:30pm SSE 14 17 - - - - - - - 26.4 1006.4 0.0
21/05:00pm SSE 16 18 - - - - - - - 26.8 1006.3 0.0
21/04:30pm SSE 16 19 - - - - - - - 27.3 1006.4 0.0
21/04:00pm SSE 15 18 - - - - - - - 27.6 1006.4 0.0
21/03:30pm SSE 12 14 - - - - - - - 28.8 1006.6 0.0
21/03:00pm SE 13 15 - - - - - - - 28.6 1006.7 0.0
21/02:30pm SSE 17 19 - - - - - - - 28.2 1006.4 0.0
21/02:00pm SSE 16 18 - - - - - - - 28.1 1006.6 0.0
21/01:30pm SE 15 17 - - - - - - - 29.1 1006.8 0.0
21/01:00pm SSE 15 16 - - - - - - - 29.5 1006.8 0.0
21/12:30pm SE 10 13 - - - - - - - 29.3 1007.0 0.0
21/12:00pm SSE 5 7 - - - - - - - 29.5 1007.1 0.0
21/11:30am WSW 3 7 - - - - - - - 30.1 1007.2 0.0
21/11:00am NW 4 9 - - - - - - - 30.0 1007.3 0.0
21/10:30am WNW 5 8 - - - - - - - 29.0 1007.4 0.0
21/10:00am WNW 4 8 - - - - - - - 28.1 1007.5 0.0
21/09:30am NW 4 7 - - - - - - - 28.0 1007.4 0.0
21/09:00am NNW 3 5 - - - - - - - 27.0 1007.3 3.8
21/08:30am NNW 5 6 - - - - - - - 25.5 1007.3 3.8
21/08:00am NW 3 5 - - - - - - - 24.6 1007.0 3.8
21/07:30am WNW 3 6 - - - - - - - 23.2 1006.6 3.8
21/07:00am WNW 4 6 - - - - - - - 22.1 1006.2 3.8
21/06:30am WNW 4 6 - - - - - - - 22.1 1005.6 3.8
21/06:00am WNW 4 6 - - - - - - - 22.2 1005.2 3.8
21/05:30am W 7 10 - - - - - - - 21.9 1004.4 3.8
21/05:00am W 8 10 - - - - - - - 22.3 1003.8 3.8
21/04:30am W 9 11 - - - - - - - 21.9 1003.6 3.8
21/04:00am W 8 10 - - - - - - - 22.1 1003.5 3.8
21/03:30am W 7 8 - - - - - - - 22.8 1003.3 3.8
21/03:00am W 10 12 - - - - - - - 22.4 1003.5 3.8
21/02:30am W 10 12 - - - - - - - 21.6 1003.6 3.8
21/02:00am W 7 10 - - - - - - - 21.6 1003.5 3.8
21/01:30am NW 3 6 - - - - - - - 20.7 1003.4 3.8
21/01:00am NNW 3 5 - - - - - - - 21.2 1003.4 3.8
21/12:30am W 5 7 - - - - - - - 21.7 1003.7 3.8
21/12:00am W 5 7 - - - - - - Recent precip. 21.9 1004.0 3.8
 
Date/Time
EDT
Wind Sea
Height
m
Swell Vis
km
Cloud Weather Temp
°C
Press
hPa
Rain since
9am
mm
Dir  Spd
kts
Gust
kts
Height
m
Period
s
Dir
20/11:30pm W 5 7 - - - - - - - 21.7 1003.9 3.6
20/11:00pm SW 2 5 - - - - - - - 22.0 1003.8 3.6
20/10:30pm WSW 3 6 - - - - - - - 21.7 1003.7 3.6
20/10:00pm W 4 7 - - - - - - - 22.1 1003.4 3.6
20/09:30pm WSW 5 7 - - - - - - - 21.8 1003.0 3.6
20/09:00pm SSW 11 18 - - - - - - - 22.8 1001.6 0.6
20/08:39pm SSW 22 31 - - - - - - - 22.5 1001.5 0.6
20/08:30pm SW 22 40 - - - - - - - 23.4 1000.8 0.6
20/08:28pm SSW 19 40 - - - - - - - 23.3 1000.3 0.6
20/08:27pm SSW 17 39 - - - - - - - 23.4 1000.2 0.6
20/08:10pm SW 15 25 - - - - - - - 23.5 1000.2 0.6
20/08:00pm SSW 14 19 - - - - - - - 23.9 999.8 0.6
20/07:30pm SW 8 14 - - - - - - - 26.5 999.4 0.6
20/07:14pm N 10 18 - - - - - - - 25.3 998.7 0.6
20/07:00pm NNE 22 24 - - - - - - - 25.2 997.1 0.6
20/06:30pm NNE 25 30 - - - - - - - 25.9 997.2 0.6
20/06:00pm NNE 25 29 - - - - - - - 26.1 996.9 0.6
20/05:30pm NNE 22 27 - - - - - - - 25.5 997.1 0.6

Other formats

Comma delimited format used in spreadsheet applications
http://www.bom.gov.au/fwo/IDN60701/IDN60701.95770.axf

JavaScript Object Notation format (JSON) in row-major order
http://www.bom.gov.au/fwo/IDN60701/IDN60701.95770.json

Data quality

Most of these data are generated automatically and are frequently updated. Quality checks on data are not normally performed. It is possible for incorrect values to appear. Refer to information at About Latest Weather Observations and please check the disclaimer before using these data.